Time;durP1;ratioP1;P1;durP2;ratioP2;P2;SDS_P1;SDS_P2;PMS_P1;PMS_P2;Temp;Humidity;BMP_temperature;BMP_pressure;BME280_temperature;BME280_humidity;BME280_pressure;Samples;Min_cycle;Max_cycle;Signal;HPM_P1;HPM_P2
2023/07/17 00:02:09;;;;;;;;;;;;;;;;;;4997429;28;19921;-85
2023/07/17 00:04:36;;;;;;;;;;;;;;;;;;5004171;28;19921;-86
2023/07/17 00:07:02;;;;;;;;;;;;;;;;;;5005063;28;20000;-87
2023/07/17 00:09:28;;;;;;;;;;;;;;;;;;5004479;28;19978;-89
2023/07/17 00:11:54;;;;;;;;;;;;;;;;;;5004971;28;19932;-85
2023/07/17 00:14:20;;;;;;;;;;;;;;;;;;5004499;28;19931;-87
2023/07/17 00:16:46;;;;;;;;;;;;;;;;;;5022728;28;19992;-88
2023/07/17 00:19:12;;;;;;;;;;;;;;;;;;5008201;28;19921;-86
2023/07/17 00:21:38;;;;;;;;;;;;;;;;;;5006729;28;19928;-87
2023/07/17 00:24:04;;;;;;;;;;;;;;;;;;5002649;28;19922;-88
2023/07/17 00:26:30;;;;;;;;;;;;;;;;;;5005440;28;20004;-87
2023/07/17 00:28:56;;;;;;;;;;;;;;;;;;5005279;28;19921;-88
2023/07/17 00:31:22;;;;;;;;;;;;;;;;;;5004917;28;19922;-87
2023/07/17 00:33:47;;;;;;;;;;;;;;;;;;5004835;28;19921;-87
2023/07/17 00:36:13;;;;;;;;;;;;;;;;;;5005374;28;20338;-87
2023/07/17 00:38:39;;;;;;;;;;;;;;;;;;5008914;28;20303;-87
2023/07/17 00:41:05;;;;;;;;;;;;;;;;;;5006976;28;19921;-87
2023/07/17 00:43:31;;;;;;;;;;;;;;;;;;5022923;28;20409;-85
2023/07/17 00:45:57;;;;;;;;;;;;;;;;;;5008058;28;20369;-87
2023/07/17 00:48:23;;;;;;;;;;;;;;;;;;5008460;28;20295;-86
2023/07/17 00:50:51;;;;;;;;;;;;;;;;;;5007221;28;19975;-86
2023/07/17 00:53:17;;;;;;;;;;;;;;;;;;5007920;28;20339;-87
2023/07/17 00:55:43;;;;;;;;;;;;;;;;;;5008043;28;19963;-86
2023/07/17 00:58:09;;;;;;;;;;;;;;;;;;5007660;28;19929;-85
2023/07/17 01:00:35;;;;;;;;;;;;;;;;;;5007938;28;19921;-86
2023/07/17 01:03:04;;;;;;;;;;;;;;;;;;5000449;28;19921;-86
2023/07/17 01:05:30;;;;;;;;;;;;;;;;;;4987308;28;19972;-87
2023/07/17 01:07:56;;;;;;;;;;;;;;;;;;5023986;28;19921;-87
2023/07/17 01:10:22;;;;;;;;;;;;;;;;;;5007482;28;19921;-87
2023/07/17 01:12:48;;;;;;;;;;;;;;;;;;5006828;28;19921;-85
2023/07/17 01:15:14;;;;;;;;;;;;;;;;;;5022962;28;19925;-86
2023/07/17 01:17:40;;;;;;;;;;;;;;;;;;5006224;28;20364;-85
2023/07/17 01:20:05;;;;;;;;;;;;;;;;;;5006691;28;20395;-85
2023/07/17 01:22:31;;;;;;;;;;;;;;;;;;5005884;28;19947;-83
2023/07/17 01:24:57;;;;;;;;;;;;;;;;;;5022933;28;19975;-86
2023/07/17 01:27:23;;;;;;;;;;;;;;;;;;5040303;28;19921;-86
2023/07/17 01:29:49;;;;;;;;;;;;;;;;;;5023068;28;19932;-84
2023/07/17 01:32:15;;;;;;;;;;;;;;;;;;5021885;28;19968;-84
2023/07/17 01:34:41;;;;;;;;;;;;;;;;;;5022762;28;20422;-85
2023/07/17 01:37:07;;;;;;;;;;;;;;;;;;5005911;28;20028;-85
2023/07/17 01:39:33;;;;;;;;;;;;;;;;;;5006482;28;19984;-85
2023/07/17 01:41:59;;;;;;;;;;;;;;;;;;5006074;28;19929;-85
2023/07/17 01:44:28;;;;;;;;;;;;;;;;;;5021805;28;20005;-86
2023/07/17 01:46:53;;;;;;;;;;;;;;;;;;5021386;28;19922;-85
2023/07/17 01:49:19;;;;;;;;;;;;;;;;;;5004355;28;19929;-85
2023/07/17 01:51:45;;;;;;;;;;;;;;;;;;5005280;28;19925;-86
2023/07/17 01:54:12;;;;;;;;;;;;;;;;;;5006618;28;19925;-85
2023/07/17 01:56:38;;;;;;;;;;;;;;;;;;5005391;28;19928;-83
2023/07/17 01:59:04;;;;;;;;;;;;;;;;;;5005319;28;20368;-83
2023/07/17 02:01:31;;;;;;;;;;;;;;;;;;5021088;28;20000;-85
2023/07/17 02:03:57;;;;;;;;;;;;;;;;;;5005610;28;20376;-85
2023/07/17 02:06:23;;;;;;;;;;;;;;;;;;5005771;28;19921;-86
2023/07/17 02:08:49;;;;;;;;;;;;;;;;;;5005483;28;19925;-86
2023/07/17 02:11:15;;;;;;;;;;;;;;;;;;5005610;28;19928;-86
2023/07/17 02:13:41;;;;;;;;;;;;;;;;;;5006182;28;19921;-86
2023/07/17 02:16:07;;;;;;;;;;;;;;;;;;5005839;28;19925;-85
2023/07/17 02:18:33;;;;;;;;;;;;;;;;;;5005601;28;20354;-84
2023/07/17 02:20:58;;;;;;;;;;;;;;;;;;5004862;28;19925;-86
2023/07/17 02:23:24;;;;;;;;;;;;;;;;;;5005385;28;20395;-85
2023/07/17 02:25:50;;;;;;;;;;;;;;;;;;5005095;28;20402;-85
2023/07/17 02:28:16;;;;;;;;;;;;;;;;;;5005176;28;20055;-84
2023/07/17 02:30:42;;;;;;;;;;;;;;;;;;5005275;28;19947;-86
2023/07/17 02:33:08;;;;;;;;;;;;;;;;;;5020907;28;19921;-86
2023/07/17 02:35:34;;;;;;;;;;;;;;;;;;5005213;28;19925;-85
2023/07/17 02:38:00;;;;;;;;;;;;;;;;;;5004702;28;19989;-85
2023/07/17 02:40:26;;;;;;;;;;;;;;;;;;5019733;28;19928;-87
2023/07/17 02:42:52;;;;;;;;;;;;;;;;;;5004861;28;19921;-85
2023/07/17 02:45:18;;;;;;;;;;;;;;;;;;5020993;28;20015;-86
2023/07/17 02:47:44;;;;;;;;;;;;;;;;;;5004558;28;19921;-86
2023/07/17 02:50:10;;;;;;;;;;;;;;;;;;5003765;28;20303;-84
2023/07/17 02:52:36;;;;;;;;;;;;;;;;;;5005049;28;20520;-85
2023/07/17 02:55:04;;;;;;;;;;;;;;;;;;5003886;28;19925;-85
2023/07/17 02:57:30;;;;;;;;;;;;;;;;;;5004634;28;20268;-86
2023/07/17 02:59:57;;;;;;;;;;;;;;;;;;5003078;28;19921;-85
2023/07/17 03:02:23;;;;;;;;;;;;;;;;;;5003839;28;19929;-84
2023/07/17 03:04:49;;;;;;;;;;;;;;;;;;5004217;28;19929;-86
2023/07/17 03:07:15;;;;;;;;;;;;;;;;;;5020251;28;20391;-86
2023/07/17 03:09:41;;;;;;;;;;;;;;;;;;5003280;28;19921;-86
2023/07/17 03:12:07;;;;;;;;;;;;;;;;;;5003765;28;20384;-85
2023/07/17 03:14:33;;;;;;;;;;;;;;;;;;5003873;28;19925;-84
2023/07/17 03:16:59;;;;;;;;;;;;;;;;;;5003726;28;20276;-85
2023/07/17 03:19:25;;;;;;;;;;;;;;;;;;5003128;28;19921;-85
2023/07/17 03:21:51;;;;;;;;;;;;;;;;;;5004105;28;19980;-85
2023/07/17 03:24:17;;;;;;;;;;;;;;;;;;5019150;28;19921;-86
2023/07/17 03:26:43;;;;;;;;;;;;;;;;;;5020066;28;19972;-85
2023/07/17 03:29:09;;;;;;;;;;;;;;;;;;5003806;28;20491;-86
2023/07/17 03:31:35;;;;;;;;;;;;;;;;;;5002563;28;19921;-85
2023/07/17 03:34:00;;;;;;;;;;;;;;;;;;5003429;28;19921;-86
2023/07/17 03:36:26;;;;;;;;;;;;;;;;;;5003785;28;20023;-84
2023/07/17 03:38:52;;;;;;;;;;;;;;;;;;5004117;28;19968;-86
2023/07/17 03:41:20;;;;;;;;;;;;;;;;;;5003177;28;19921;-84
2023/07/17 03:43:46;;;;;;;;;;;;;;;;;;5020166;28;19944;-86
2023/07/17 03:46:17;;;;;;;;;;;;;;;;;;5003280;28;19921;-87
2023/07/17 03:48:43;;;;;;;;;;;;;;;;;;5003614;28;19982;-86
2023/07/17 03:51:09;;;;;;;;;;;;;;;;;;5002592;28;19933;-84
2023/07/17 03:53:35;;;;;;;;;;;;;;;;;;5002758;28;19921;-83
2023/07/17 03:56:01;;;;;;;;;;;;;;;;;;5018976;28;19925;-84
2023/07/17 03:58:33;;;;;;;;;;;;;;;;;;5037295;28;20015;-84
2023/07/17 04:00:59;;;;;;;;;;;;;;;;;;5018160;28;19987;-84
2023/07/17 04:03:25;;;;;;;;;;;;;;;;;;5001728;28;19925;-84
2023/07/17 04:05:51;;;;;;;;;;;;;;;;;;5002159;28;19928;-85
2023/07/17 04:08:17;;;;;;;;;;;;;;;;;;5002910;28;20430;-86
2023/07/17 04:10:43;;;;;;;;;;;;;;;;;;5002341;28;19921;-85
2023/07/17 04:13:09;;;;;;;;;;;;;;;;;;5006546;28;19925;-85
2023/07/17 04:15:36;;;;;;;;;;;;;;;;;;5006147;28;19952;-86
2023/07/17 04:18:02;;;;;;;;;;;;;;;;;;5006566;28;20330;-85
2023/07/17 04:20:28;;;;;;;;;;;;;;;;;;5006298;28;19921;-85
2023/07/17 04:22:54;;;;;;;;;;;;;;;;;;5006310;28;19929;-85
2023/07/17 04:25:19;;;;;;;;;;;;;;;;;;5006335;28;20303;-86
2023/07/17 04:27:45;;;;;;;;;;;;;;;;;;5006358;28;20391;-84
2023/07/17 04:30:11;;;;;;;;;;;;;;;;;;5022203;28;20004;-85
2023/07/17 04:32:37;;;;;;;;;;;;;;;;;;5022325;28;20415;-84
2023/07/17 04:35:03;;;;;;;;;;;;;;;;;;5005897;28;19929;-84
2023/07/17 04:37:29;;;;;;;;;;;;;;;;;;5006263;28;19925;-83
2023/07/17 04:39:55;;;;;;;;;;;;;;;;;;5005490;28;19932;-85
2023/07/17 04:42:21;;;;;;;;;;;;;;;;;;5005029;28;19921;-85
2023/07/17 04:44:47;;;;;;;;;;;;;;;;;;5007195;28;20334;-86
2023/07/17 04:47:13;;;;;;;;;;;;;;;;;;5005707;28;20368;-85
2023/07/17 04:49:42;;;;;;;;;;;;;;;;;;5005941;28;19921;-85
2023/07/17 04:52:08;;;;;;;;;;;;;;;;;;4988628;28;19929;-85
2023/07/17 04:54:34;;;;;;;;;;;;;;;;;;5002407;28;19925;-86
2023/07/17 04:57:00;;;;;;;;;;;;;;;;;;4985928;28;19921;-85
2023/07/17 04:59:26;;;;;;;;;;;;;;;;;;4986279;28;20004;-85
2023/07/17 05:01:52;;;;;;;;;;;;;;;;;;5002226;28;20370;-83
2023/07/17 05:04:19;;;;;;;;;;;;;;;;;;5002101;28;20012;-83
2023/07/17 05:06:44;;;;;;;;;;;;;;;;;;5004774;28;20342;-85
2023/07/17 05:09:10;;;;;;;;;;;;;;;;;;5005369;28;19921;-82
2023/07/17 05:11:36;;;;;;;;;;;;;;;;;;5004493;28;19930;-84
2023/07/17 05:14:02;;;;;;;;;;;;;;;;;;5004993;28;19925;-85
2023/07/17 05:19:18;;;;;;;;;;;;;;;;;;5003520;28;20332;-83
2023/07/17 05:21:44;;;;;;;;;;;;;;;;;;5003160;28;19921;-86
2023/07/17 05:24:10;;;;;;;;;;;;;;;;;;5001139;28;19921;-85
2023/07/17 05:26:36;;;;;;;;;;;;;;;;;;4987907;28;20384;-86
2023/07/17 05:29:02;;;;;;;;;;;;;;;;;;5002252;28;19921;-84
2023/07/17 05:31:28;;;;;;;;;;;;;;;;;;4987112;28;19961;-84
2023/07/17 05:33:55;;;;;;;;;;;;;;;;;;4987098;28;19921;-86
2023/07/17 05:36:21;;;;;;;;;;;;;;;;;;4986148;28;20016;-88
2023/07/17 05:38:47;;;;;;;;;;;;;;;;;;4986536;28;20383;-85
2023/07/17 05:41:13;;;;;;;;;;;;;;;;;;4986554;28;20455;-86
2023/07/17 05:43:39;;;;;;;;;;;;;;;;;;5002881;28;19929;-85
2023/07/17 05:46:05;;;;;;;;;;;;;;;;;;4986288;28;19921;-86
2023/07/17 05:48:31;;;;;;;;;;;;;;;;;;4985628;28;19922;-87
2023/07/17 05:50:57;;;;;;;;;;;;;;;;;;4985724;28;19965;-86
2023/07/17 05:53:24;;;;;;;;;;;;;;;;;;4985588;28;19926;-85
2023/07/17 05:55:50;;;;;;;;;;;;;;;;;;4986368;28;19929;-86
2023/07/17 05:58:16;;;;;;;;;;;;;;;;;;4986009;28;19922;-83
2023/07/17 06:00:41;;;;;;;;;;;;;;;;;;4984979;28;19988;-86
2023/07/17 06:03:07;;;;;;;;;;;;;;;;;;5003481;28;20387;-85
2023/07/17 06:05:35;;;;;;;;;;;;;;;;;;5002128;28;19944;-86
2023/07/17 06:08:01;;;;;;;;;;;;;;;;;;5003809;28;20505;-88
2023/07/17 06:10:27;;;;;;;;;;;;;;;;;;5008141;28;19976;-85
2023/07/17 06:12:53;;;;;;;;;;;;;;;;;;5024723;28;20112;-88
2023/07/17 06:15:23;;;;;;;;;;;;;;;;;;5010414;28;19936;-86
2023/07/17 06:17:48;;;;;;;;;;;;;;;;;;5007922;28;19989;-88
2023/07/17 06:22:58;;;;;;;;;;;;;;;;;;5024152;28;19921;-87
2023/07/17 06:25:24;;;;;;;;;;;;;;;;;;5005438;28;20410;-84
2023/07/17 06:28:06;;;;;;;;;;;;;;;;;;5021601;28;19928;-85
2023/07/17 06:30:32;;;;;;;;;;;;;;;;;;5023634;28;20443;-87
2023/07/17 06:32:58;;;;;;;;;;;;;;;;;;5020745;28;19921;-84
2023/07/17 06:35:24;;;;;;;;;;;;;;;;;;5021791;28;19951;-84
2023/07/17 06:37:50;;;;;;;;;;;;;;;;;;5024060;28;19996;-82
2023/07/17 06:40:16;;;;;;;;;;;;;;;;;;5023480;28;19964;-86
2023/07/17 06:42:42;;;;;;;;;;;;;;;;;;5021881;28;19928;-85
2023/07/17 06:45:08;;;;;;;;;;;;;;;;;;5021373;28;19921;-85
2023/07/17 06:47:34;;;;;;;;;;;;;;;;;;5021992;28;19971;-82
2023/07/17 06:50:00;;;;;;;;;;;;;;;;;;5021447;28;20350;-86
2023/07/17 06:52:26;;;;;;;;;;;;;;;;;;5023608;28;19928;-86
2023/07/17 06:54:52;;;;;;;;;;;;;;;;;;5004779;28;19979;-86
2023/07/17 06:57:18;;;;;;;;;;;;;;;;;;5019923;28;19928;-84
2023/07/17 06:59:45;;;;;;;;;;;;;;;;;;5003979;28;19921;-84
2023/07/17 07:02:10;;;;;;;;;;;;;;;;;;5005700;28;19975;-91
2023/07/17 07:04:36;;;;;;;;;;;;;;;;;;5025088;28;19921;-89
2023/07/17 07:07:02;;;;;;;;;;;;;;;;;;5022826;28;20011;-90
2023/07/17 07:09:28;;;;;;;;;;;;;;;;;;5008336;28;19921;-88
2023/07/17 07:11:54;;;;;;;;;;;;;;;;;;5021235;28;19921;-86
2023/07/17 07:14:22;;;;;;;;;;;;;;;;;;5005238;28;20016;-85
2023/07/17 07:16:47;;;;;;;;;;;;;;;;;;5004588;28;19929;-87
2023/07/17 07:19:13;;;;;;;;;;;;;;;;;;5021349;28;19943;-87
2023/07/17 07:21:40;;;;;;;;;;;;;;;;;;5021612;28;19925;-86
2023/07/17 07:24:06;;;;;;;;;;;;;;;;;;5005428;28;19921;-85
2023/07/17 07:26:32;;;;;;;;;;;;;;;;;;5020641;28;20373;-83
2023/07/17 07:28:58;;;;;;;;;;;;;;;;;;5004481;28;19921;-88
2023/07/17 07:31:25;;;;;;;;;;;;;;;;;;5001715;28;19928;-85
2023/07/17 07:33:51;;;;;;;;;;;;;;;;;;5006027;28;20364;-86
2023/07/17 07:36:17;;;;;;;;;;;;;;;;;;5005144;28;19933;-87
2023/07/17 07:38:43;;;;;;;;;;;;;;;;;;5020734;28;19928;-85
2023/07/17 07:41:09;;;;;;;;;;;;;;;;;;5004213;28;20415;-87
2023/07/17 07:43:43;;;;;;;;;;;;;;;;;;5021877;28;19921;-87
2023/07/17 07:46:09;;;;;;;;;;;;;;;;;;4998651;28;19936;-86
2023/07/17 07:48:35;;;;;;;;;;;;;;;;;;5004804;28;19921;-84
2023/07/17 07:51:01;;;;;;;;;;;;;;;;;;5004714;28;20426;-87
2023/07/17 07:53:27;;;;;;;;;;;;;;;;;;5006932;28;19968;-86
2023/07/17 07:55:53;;;;;;;;;;;;;;;;;;5005325;28;19926;-86
2023/07/17 07:58:19;;;;;;;;;;;;;;;;;;5021596;28;19979;-85
2023/07/17 08:00:57;;;;;;;;;;;;;;;;;;5020930;28;19921;-86
2023/07/17 08:06:26;;;;;;;;;;;;;;;;;;5037714;28;19920;-84
2023/07/17 08:11:56;;;;;;;;;;;;;;;;;;5044000;28;20340;-85
2023/07/17 08:14:22;;;;;;;;;;;;;;;;;;5005804;28;19956;-89
2023/07/17 08:19:36;;;;;;;;;;;;;;;;;;5027312;28;19925;-91
2023/07/17 08:22:02;;;;;;;;;;;;;;;;;;5010033;28;19921;-90
2023/07/17 08:24:28;;;;;;;;;;;;;;;;;;5026860;28;19922;-91
2023/07/17 08:26:57;;;;;;;;;;;;;;;;;;5025089;28;19927;-89
2023/07/17 08:29:23;;;;;;;;;;;;;;;;;;5009929;28;19977;-91
2023/07/17 08:31:51;;;;;;;;;;;;;;;;;;4997172;28;20419;-87
2023/07/17 08:34:17;;;;;;;;;;;;;;;;;;5023590;28;19928;-85
2023/07/17 08:36:58;;;;;;;;;;;;;;;;;;5004467;28;19921;-87
2023/07/17 08:39:33;;;;;;;;;;;;;;;;;;5000037;28;19921;-84
2023/07/17 08:41:59;;;;;;;;;;;;;;;;;;5020839;28;19925;-85
2023/07/17 08:44:25;;;;;;;;;;;;;;;;;;5006535;28;20288;-89
2023/07/17 08:46:51;;;;;;;;;;;;;;;;;;5005565;28;19964;-81
2023/07/17 08:49:19;;;;;;;;;;;;;;;;;;5000578;28;20330;-80
2023/07/17 08:51:45;;;;;;;;;;;;;;;;;;5015967;28;20013;-81
2023/07/17 08:54:12;;;;;;;;;;;;;;;;;;5017389;28;20011;-81
2023/07/17 08:56:38;;;;;;;;;;;;;;;;;;4994631;28;19926;-81
2023/07/17 08:59:05;;;;;;;;;;;;;;;;;;5004815;28;19936;-82
2023/07/17 09:01:31;;;;;;;;;;;;;;;;;;5020060;28;19931;-81
2023/07/17 09:03:57;;;;;;;;;;;;;;;;;;5001190;28;19932;-80
2023/07/17 09:06:23;;;;;;;;;;;;;;;;;;5017543;28;19957;-79
2023/07/17 09:08:49;;;;;;;;;;;;;;;;;;5020261;28;20122;-81
2023/07/17 09:11:15;;;;;;;;;;;;;;;;;;5022123;28;19927;-85
2023/07/17 09:13:59;;;;;;;;;;;;;;;;;;5010737;28;19928;-90
2023/07/17 09:16:25;;;;;;;;;;;;;;;;;;5006556;28;20273;-89
2023/07/17 09:18:51;;;;;;;;;;;;;;;;;;5025080;28;19921;-87
2023/07/17 09:21:17;;;;;;;;;;;;;;;;;;5009346;28;20002;-87
2023/07/17 09:23:43;;;;;;;;;;;;;;;;;;5009601;28;19928;-88
2023/07/17 09:26:09;;;;;;;;;;;;;;;;;;5024972;28;19921;-85
2023/07/17 09:28:35;;;;;;;;;;;;;;;;;;5008205;28;19979;-85
2023/07/17 09:31:04;;;;;;;;;;;;;;;;;;5008203;28;19928;-88
2023/07/17 09:33:30;;;;;;;;;;;;;;;;;;5009289;28;19925;-88
2023/07/17 09:35:56;;;;;;;;;;;;;;;;;;5008516;28;19979;-87
2023/07/17 09:38:22;;;;;;;;;;;;;;;;;;5024467;28;19979;-86
2023/07/17 09:40:48;;;;;;;;;;;;;;;;;;5022187;28;19921;-85
2023/07/17 09:43:14;;;;;;;;;;;;;;;;;;5008907;28;19929;-84
2023/07/17 09:45:40;;;;;;;;;;;;;;;;;;5006860;28;19925;-89
2023/07/17 09:48:06;;;;;;;;;;;;;;;;;;5008464;28;20405;-88
2023/07/17 09:50:32;;;;;;;;;;;;;;;;;;5027103;28;19921;-90
2023/07/17 09:52:58;;;;;;;;;;;;;;;;;;5010028;28;19921;-91
2023/07/17 09:55:24;;;;;;;;;;;;;;;;;;5024430;28;19925;-92
2023/07/17 09:57:50;;;;;;;;;;;;;;;;;;5027737;28;19921;-92
2023/07/17 10:00:21;;;;;;;;;;;;;;;;;;5013272;28;19928;-90
2023/07/17 10:02:46;;;;;;;;;;;;;;;;;;5009716;28;19929;-91
2023/07/17 10:05:12;;;;;;;;;;;;;;;;;;5011085;28;19921;-88
2023/07/17 10:07:38;;;;;;;;;;;;;;;;;;5014014;28;19928;-91
2023/07/17 10:10:05;;;;;;;;;;;;;;;;;;5013784;28;19932;-90
2023/07/17 10:12:31;;;;;;;;;;;;;;;;;;5013204;28;19975;-92
2023/07/17 10:14:57;;;;;;;;;;;;;;;;;;4994057;28;19925;-92
2023/07/17 10:17:23;;;;;;;;;;;;;;;;;;5000815;28;19922;-91
2023/07/17 10:19:49;;;;;;;;;;;;;;;;;;5009787;28;20387;-91
2023/07/17 10:22:15;;;;;;;;;;;;;;;;;;5011439;28;19971;-90
2023/07/17 10:24:41;;;;;;;;;;;;;;;;;;4995328;28;19944;-94
2023/07/17 10:27:07;;;;;;;;;;;;;;;;;;5006189;28;19932;-90
2023/07/17 10:29:33;;;;;;;;;;;;;;;;;;5026982;28;19921;-88
2023/07/17 10:34:29;;;;;;;;;;;;;;;;;;5028202;28;19980;-87
2023/07/17 10:36:55;;;;;;;;;;;;;;;;;;5033084;28;19932;-89
2023/07/17 10:39:21;;;;;;;;;;;;;;;;;;5016965;28;19979;-88
2023/07/17 10:41:46;;;;;;;;;;;;;;;;;;5045119;28;20000;-91
2023/07/17 10:44:12;;;;;;;;;;;;;;;;;;5027419;28;19921;-90
2023/07/17 10:46:38;;;;;;;;;;;;;;;;;;5043009;28;19921;-92
2023/07/17 10:49:08;;;;;;;;;;;;;;;;;;5028700;28;20372;-90
2023/07/17 10:51:34;;;;;;;;;;;;;;;;;;5027795;28;19947;-91
2023/07/17 10:54:00;;;;;;;;;;;;;;;;;;5026589;28;19925;-88
2023/07/17 10:56:26;;;;;;;;;;;;;;;;;;5028120;28;19925;-90
2023/07/17 10:59:04;;;;;;;;;;;;;;;;;;5013377;28;19921;-89
2023/07/17 11:01:33;;;;;;;;;;;;;;;;;;5011606;28;19952;-91
2023/07/17 11:03:59;;;;;;;;;;;;;;;;;;5011190;28;19921;-91
2023/07/17 11:06:25;;;;;;;;;;;;;;;;;;5007553;28;19929;-88
2023/07/17 11:08:54;;;;;;;;;;;;;;;;;;5008633;28;19928;-91
2023/07/17 11:11:20;;;;;;;;;;;;;;;;;;5028236;28;20107;-90
2023/07/17 11:13:46;;;;;;;;;;;;;;;;;;5029270;28;19925;-92
2023/07/17 11:16:12;;;;;;;;;;;;;;;;;;5030038;28;19957;-89
2023/07/17 11:18:37;;;;;;;;;;;;;;;;;;5027790;28;19921;-89
2023/07/17 11:21:03;;;;;;;;;;;;;;;;;;5026589;28;19928;-89
2023/07/17 11:23:38;;;;;;;;;;;;;;;;;;5043099;28;19936;-85
2023/07/17 11:26:04;;;;;;;;;;;;;;;;;;5022174;28;19921;-88
2023/07/17 11:28:30;;;;;;;;;;;;;;;;;;5022133;28;20020;-86
2023/07/17 11:30:56;;;;;;;;;;;;;;;;;;5022847;28;19956;-86
2023/07/17 11:33:22;;;;;;;;;;;;;;;;;;5021257;28;19921;-87
2023/07/17 11:35:49;;;;;;;;;;;;;;;;;;5040399;28;19925;-89
2023/07/17 11:38:15;;;;;;;;;;;;;;;;;;5025749;28;19921;-86
2023/07/17 11:40:41;;;;;;;;;;;;;;;;;;5022267;28;19979;-87
2023/07/17 11:43:07;;;;;;;;;;;;;;;;;;5023061;28;19929;-90
2023/07/17 11:45:33;;;;;;;;;;;;;;;;;;5023834;28;19928;-86
2023/07/17 11:47:59;;;;;;;;;;;;;;;;;;5023099;28;19928;-89
2023/07/17 11:50:25;;;;;;;;;;;;;;;;;;5020794;28;19921;-88
2023/07/17 11:52:51;;;;;;;;;;;;;;;;;;5021398;28;19956;-85
2023/07/17 11:55:17;;;;;;;;;;;;;;;;;;5021813;28;19925;-89
2023/07/17 11:57:42;;;;;;;;;;;;;;;;;;5021331;28;19921;-86
2023/07/17 12:00:10;;;;;;;;;;;;;;;;;;5027969;28;19976;-88
2023/07/17 12:02:36;;;;;;;;;;;;;;;;;;5027732;28;19925;-89
2023/07/17 12:05:04;;;;;;;;;;;;;;;;;;5028695;28;19915;-88
2023/07/17 12:07:30;;;;;;;;;;;;;;;;;;5027991;28;19964;-89
2023/07/17 12:09:56;;;;;;;;;;;;;;;;;;5026457;28;19921;-90
2023/07/17 12:12:22;;;;;;;;;;;;;;;;;;5028726;28;19960;-87
2023/07/17 12:14:48;;;;;;;;;;;;;;;;;;5004961;28;19925;-87
2023/07/17 12:17:16;;;;;;;;;;;;;;;;;;5020753;28;22778;-89
2023/07/17 12:19:42;;;;;;;;;;;;;;;;;;5006368;28;19928;-86
2023/07/17 12:22:08;;;;;;;;;;;;;;;;;;5006249;28;19921;-90
2023/07/17 12:24:34;;;;;;;;;;;;;;;;;;5022534;28;19990;-86
2023/07/17 12:27:00;;;;;;;;;;;;;;;;;;5018896;28;19984;-85
2023/07/17 12:29:27;;;;;;;;;;;;;;;;;;5005596;28;19921;-86
2023/07/17 12:31:53;;;;;;;;;;;;;;;;;;5004699;28;19928;-89
2023/07/17 12:34:19;;;;;;;;;;;;;;;;;;5009687;28;20031;-89
2023/07/17 12:36:45;;;;;;;;;;;;;;;;;;5030110;28;20395;-88
2023/07/17 12:39:11;;;;;;;;;;;;;;;;;;5013366;28;19921;-91
2023/07/17 12:41:37;;;;;;;;;;;;;;;;;;5009038;28;19925;-86
2023/07/17 12:44:04;;;;;;;;;;;;;;;;;;5007240;28;20011;-86
2023/07/17 12:46:30;;;;;;;;;;;;;;;;;;5007178;28;19921;-87
2023/07/17 12:48:55;;;;;;;;;;;;;;;;;;5006995;28;19932;-86
2023/07/17 12:51:21;;;;;;;;;;;;;;;;;;5006778;28;20375;-81
2023/07/17 12:53:47;;;;;;;;;;;;;;;;;;5006490;28;19921;-84
2023/07/17 12:56:13;;;;;;;;;;;;;;;;;;5006108;28;19992;-85
2023/07/17 12:58:39;;;;;;;;;;;;;;;;;;5006255;28;19971;-86
2023/07/17 13:01:05;;;;;;;;;;;;;;;;;;5006729;28;19925;-83
2023/07/17 13:03:31;;;;;;;;;;;;;;;;;;5006291;28;20272;-85
2023/07/17 13:05:57;;;;;;;;;;;;;;;;;;5005421;28;19928;-84
2023/07/17 13:08:23;;;;;;;;;;;;;;;;;;5005903;28;19921;-87
2023/07/17 13:10:49;;;;;;;;;;;;;;;;;;5022454;28;19928;-84
2023/07/17 13:13:16;;;;;;;;;;;;;;;;;;5022510;28;19921;-87
2023/07/17 13:15:44;;;;;;;;;;;;;;;;;;5022078;28;19948;-84
2023/07/17 13:18:11;;;;;;;;;;;;;;;;;;5005503;28;20011;-86
2023/07/17 13:20:37;;;;;;;;;;;;;;;;;;5005926;28;19975;-86
2023/07/17 13:23:03;;;;;;;;;;;;;;;;;;5022356;28;19921;-87
2023/07/17 13:25:29;;;;;;;;;;;;;;;;;;5006206;28;19921;-86
2023/07/17 13:27:55;;;;;;;;;;;;;;;;;;5006250;28;19979;-85
2023/07/17 13:30:21;;;;;;;;;;;;;;;;;;5005253;28;19971;-86
2023/07/17 13:32:47;;;;;;;;;;;;;;;;;;5005620;28;19928;-87
2023/07/17 13:35:12;;;;;;;;;;;;;;;;;;5023497;28;20016;-85
2023/07/17 13:37:39;;;;;;;;;;;;;;;;;;5024533;28;19975;-86
2023/07/17 13:40:05;;;;;;;;;;;;;;;;;;5007389;28;19921;-88
2023/07/17 13:42:31;;;;;;;;;;;;;;;;;;5007468;28;19928;-86
2023/07/17 13:44:59;;;;;;;;;;;;;;;;;;5022207;28;19921;-88
2023/07/17 13:47:30;;;;;;;;;;;;;;;;;;5006579;28;19925;-87
2023/07/17 13:49:56;;;;;;;;;;;;;;;;;;5007055;28;19944;-88
2023/07/17 13:52:22;;;;;;;;;;;;;;;;;;5007310;28;19922;-88
2023/07/17 13:54:48;;;;;;;;;;;;;;;;;;5023177;28;20037;-86
2023/07/17 13:57:14;;;;;;;;;;;;;;;;;;5006725;28;19921;-86
2023/07/17 13:59:42;;;;;;;;;;;;;;;;;;5022491;28;19929;-86
2023/07/17 14:02:08;;;;;;;;;;;;;;;;;;5006499;28;19967;-86
2023/07/17 14:04:34;;;;;;;;;;;;;;;;;;5006153;28;19921;-86
2023/07/17 14:06:59;;;;;;;;;;;;;;;;;;5005628;28;19921;-85
2023/07/17 14:12:29;;;;;;;;;;;;;;;;;;5040352;28;19967;-86
2023/07/17 14:14:55;;;;;;;;;;;;;;;;;;5005242;28;19929;-86
2023/07/17 14:17:21;;;;;;;;;;;;;;;;;;5005762;28;19928;-85
2023/07/17 14:19:47;;;;;;;;;;;;;;;;;;5005411;28;19928;-87
2023/07/17 14:25:17;;;;;;;;;;;;;;;;;;5034867;28;20395;-86
2023/07/17 14:27:43;;;;;;;;;;;;;;;;;;4992847;28;19922;-87
2023/07/17 14:30:10;;;;;;;;;;;;;;;;;;4985704;28;19922;-86
2023/07/17 14:32:36;;;;;;;;;;;;;;;;;;4985996;28;19928;-86
2023/07/17 14:35:02;;;;;;;;;;;;;;;;;;5001940;28;19925;-86
2023/07/17 14:37:27;;;;;;;;;;;;;;;;;;4985848;28;19921;-87
2023/07/17 14:39:53;;;;;;;;;;;;;;;;;;4985664;28;19977;-86
2023/07/17 14:42:19;;;;;;;;;;;;;;;;;;4985846;28;20396;-87
2023/07/17 14:44:46;;;;;;;;;;;;;;;;;;4985068;28;20336;-86
2023/07/17 14:47:12;;;;;;;;;;;;;;;;;;4985571;28;19925;-86
2023/07/17 14:49:37;;;;;;;;;;;;;;;;;;4985833;28;19928;-88
2023/07/17 14:52:04;;;;;;;;;;;;;;;;;;4984865;28;19921;-87
2023/07/17 14:54:30;;;;;;;;;;;;;;;;;;4984483;28;20432;-87
2023/07/17 14:56:56;;;;;;;;;;;;;;;;;;4984513;28;19975;-85
2023/07/17 14:59:22;;;;;;;;;;;;;;;;;;4985013;28;20380;-86
2023/07/17 15:01:48;;;;;;;;;;;;;;;;;;4999398;28;20391;-85
2023/07/17 15:04:13;;;;;;;;;;;;;;;;;;5004134;28;19943;-86
2023/07/17 15:06:39;;;;;;;;;;;;;;;;;;5004097;28;20269;-86
2023/07/17 15:09:05;;;;;;;;;;;;;;;;;;5004102;28;20288;-87
2023/07/17 15:11:31;;;;;;;;;;;;;;;;;;5002912;28;19925;-86
2023/07/17 15:13:57;;;;;;;;;;;;;;;;;;5003949;28;19921;-86
2023/07/17 15:16:23;;;;;;;;;;;;;;;;;;5003058;28;20012;-85
2023/07/17 15:18:49;;;;;;;;;;;;;;;;;;5004078;28;19925;-85
2023/07/17 15:21:15;;;;;;;;;;;;;;;;;;5021689;28;19928;-86
2023/07/17 15:23:41;;;;;;;;;;;;;;;;;;5018726;28;19921;-86
2023/07/17 15:29:02;;;;;;;;;;;;;;;;;;5019347;28;19944;-85
2023/07/17 15:34:32;;;;;;;;;;;;;;;;;;5019824;28;20296;-86
2023/07/17 15:39:43;;;;;;;;;;;;;;;;;;5019631;28;19975;-86
2023/07/17 15:42:09;;;;;;;;;;;;;;;;;;5003172;28;20378;-88
2023/07/17 15:44:35;;;;;;;;;;;;;;;;;;5003216;28;19964;-87
2023/07/17 15:47:02;;;;;;;;;;;;;;;;;;5004083;28;19964;-88
2023/07/17 15:49:28;;;;;;;;;;;;;;;;;;5004518;28;19921;-88
2023/07/17 15:51:54;;;;;;;;;;;;;;;;;;5003638;28;19929;-87
2023/07/17 15:54:19;;;;;;;;;;;;;;;;;;5003391;28;19956;-88
2023/07/17 15:56:46;;;;;;;;;;;;;;;;;;5003066;28;19921;-88
2023/07/17 15:59:12;;;;;;;;;;;;;;;;;;5003185;28;19997;-88
2023/07/17 16:01:38;;;;;;;;;;;;;;;;;;5003346;28;19968;-89
2023/07/17 16:04:04;;;;;;;;;;;;;;;;;;5004266;28;20299;-88
2023/07/17 16:06:30;;;;;;;;;;;;;;;;;;5020205;28;19929;-86
2023/07/17 16:08:56;;;;;;;;;;;;;;;;;;5004046;28;20448;-87
2023/07/17 16:11:23;;;;;;;;;;;;;;;;;;5004114;28;20286;-88
2023/07/17 16:13:50;;;;;;;;;;;;;;;;;;5004173;28;20341;-89
2023/07/17 16:16:16;;;;;;;;;;;;;;;;;;5004118;28;19925;-88
2023/07/17 16:18:41;;;;;;;;;;;;;;;;;;5003664;28;19980;-89
2023/07/17 16:21:07;;;;;;;;;;;;;;;;;;5004285;28;19931;-92
2023/07/17 16:23:33;;;;;;;;;;;;;;;;;;5004464;28;19929;-87
2023/07/17 16:25:59;;;;;;;;;;;;;;;;;;5003987;28;19929;-87
2023/07/17 16:28:25;;;;;;;;;;;;;;;;;;5004559;28;19921;-87
2023/07/17 16:30:51;;;;;;;;;;;;;;;;;;5004393;28;19928;-87
2023/07/17 16:33:24;;;;;;;;;;;;;;;;;;5004149;28;19921;-85
2023/07/17 16:38:36;;;;;;;;;;;;;;;;;;5022947;28;19928;-88
2023/07/17 16:41:02;;;;;;;;;;;;;;;;;;5006664;28;19921;-87
2023/07/17 16:43:28;;;;;;;;;;;;;;;;;;5008804;28;19905;-87
2023/07/17 16:45:54;;;;;;;;;;;;;;;;;;5009271;28;19976;-89
2023/07/17 16:48:20;;;;;;;;;;;;;;;;;;5009116;28;19964;-89
2023/07/17 16:50:46;;;;;;;;;;;;;;;;;;5007614;28;19928;-88
2023/07/17 16:53:12;;;;;;;;;;;;;;;;;;5008455;28;19922;-89
2023/07/17 16:55:38;;;;;;;;;;;;;;;;;;5007756;28;19925;-91
2023/07/17 16:58:04;;;;;;;;;;;;;;;;;;5010071;28;19967;-89
2023/07/17 17:00:34;;;;;;;;;;;;;;;;;;5023808;28;19921;-89
2023/07/17 17:02:59;;;;;;;;;;;;;;;;;;5007490;28;19973;-91
2023/07/17 17:05:25;;;;;;;;;;;;;;;;;;5008532;28;19921;-90
2023/07/17 17:07:51;;;;;;;;;;;;;;;;;;5027654;28;19921;-89
2023/07/17 17:10:17;;;;;;;;;;;;;;;;;;5018936;28;19921;-91
2023/07/17 17:12:43;;;;;;;;;;;;;;;;;;5030896;28;19928;-89
2023/07/17 17:15:09;;;;;;;;;;;;;;;;;;5007687;28;19928;-90